sensor_id;sensor_type;location;lat;lon;timestamp;pressure;altitude;pressure_sealevel;temperature;humidity
48404;BME280;34202;52.536;6.042;2023-05-09T00:01:39;101866.91;;;15.41;100.00
48404;BME280;34202;52.536;6.042;2023-05-09T00:06:40;101855.32;;;15.35;100.00
48404;BME280;34202;52.536;6.042;2023-05-09T00:11:41;101852.31;;;15.28;100.00
48404;BME280;34202;52.536;6.042;2023-05-09T00:16:41;101851.77;;;15.23;100.00
48404;BME280;34202;52.536;6.042;2023-05-09T00:21:43;101847.73;;;15.20;100.00
48404;BME280;34202;52.536;6.042;2023-05-09T00:26:43;101843.69;;;15.17;100.00
48404;BME280;34202;52.536;6.042;2023-05-09T00:31:44;101841.92;;;15.16;100.00
48404;BME280;34202;52.536;6.042;2023-05-09T00:36:44;101833.51;;;15.14;100.00
48404;BME280;34202;52.536;6.042;2023-05-09T00:41:45;101828.60;;;15.13;100.00
48404;BME280;34202;52.536;6.042;2023-05-09T00:46:45;101820.17;;;15.11;100.00
48404;BME280;34202;52.536;6.042;2023-05-09T00:51:46;101808.23;;;15.10;100.00
48404;BME280;34202;52.536;6.042;2023-05-09T00:56:47;101802.45;;;15.08;100.00
48404;BME280;34202;52.536;6.042;2023-05-09T01:01:47;101795.08;;;15.05;100.00
48404;BME280;34202;52.536;6.042;2023-05-09T01:07:07;101795.59;;;15.02;100.00
48404;BME280;34202;52.536;6.042;2023-05-09T01:12:17;101793.66;;;15.00;100.00
48404;BME280;34202;52.536;6.042;2023-05-09T01:17:34;101788.39;;;14.99;100.00
48404;BME280;34202;52.536;6.042;2023-05-09T01:22:47;101774.36;;;14.98;100.00
48404;BME280;34202;52.536;6.042;2023-05-09T01:28:02;101767.69;;;14.95;100.00
48404;BME280;34202;52.536;6.042;2023-05-09T01:33:06;101763.14;;;14.93;100.00
48404;BME280;34202;52.536;6.042;2023-05-09T01:38:11;101763.66;;;14.92;100.00
48404;BME280;34202;52.536;6.042;2023-05-09T01:43:13;101761.02;;;14.91;100.00
48404;BME280;34202;52.536;6.042;2023-05-09T01:48:15;101755.05;;;14.88;100.00
48404;BME280;34202;52.536;6.042;2023-05-09T01:53:16;101754.00;;;14.87;100.00
48404;BME280;34202;52.536;6.042;2023-05-09T01:58:17;101754.35;;;14.86;100.00
48404;BME280;34202;52.536;6.042;2023-05-09T02:03:19;101754.70;;;14.85;100.00
48404;BME280;34202;52.536;6.042;2023-05-09T02:08:21;101753.12;;;14.84;100.00
48404;BME280;34202;52.536;6.042;2023-05-09T02:13:22;101751.72;;;14.84;100.00
48404;BME280;34202;52.536;6.042;2023-05-09T02:18:22;101750.66;;;14.84;100.00
48404;BME280;34202;52.536;6.042;2023-05-09T02:23:23;101745.40;;;14.83;100.00
48404;BME280;34202;52.536;6.042;2023-05-09T02:28:24;101740.66;;;14.84;100.00
48404;BME280;34202;52.536;6.042;2023-05-09T02:33:26;101730.15;;;14.83;100.00
48404;BME280;34202;52.536;6.042;2023-05-09T02:38:28;101724.36;;;14.82;100.00
48404;BME280;34202;52.536;6.042;2023-05-09T02:43:28;101723.13;;;14.82;100.00
48404;BME280;34202;52.536;6.042;2023-05-09T02:48:28;101717.88;;;14.81;100.00
48404;BME280;34202;52.536;6.042;2023-05-09T02:53:29;101711.74;;;14.82;100.00
48404;BME280;34202;52.536;6.042;2023-05-09T02:58:30;101694.04;;;14.80;100.00
48404;BME280;34202;52.536;6.042;2023-05-09T03:03:30;101688.27;;;14.79;100.00
48404;BME280;34202;52.536;6.042;2023-05-09T03:08:33;101687.38;;;14.78;100.00
48404;BME280;34202;52.536;6.042;2023-05-09T03:13:33;101683.88;;;14.77;100.00
48404;BME280;34202;52.536;6.042;2023-05-09T03:18:33;101676.70;;;14.78;100.00
48404;BME280;34202;52.536;6.042;2023-05-09T03:23:34;101670.39;;;14.80;100.00
48404;BME280;34202;52.536;6.042;2023-05-09T03:28:34;101668.46;;;14.80;100.00
48404;BME280;34202;52.536;6.042;2023-05-09T03:33:35;101666.53;;;14.81;100.00
48404;BME280;34202;52.536;6.042;2023-05-09T03:38:35;101657.95;;;14.81;100.00
48404;BME280;34202;52.536;6.042;2023-05-09T03:43:35;101655.84;;;14.82;100.00
48404;BME280;34202;52.536;6.042;2023-05-09T03:48:36;101656.56;;;14.84;100.00
48404;BME280;34202;52.536;6.042;2023-05-09T03:53:36;101649.90;;;14.84;100.00
48404;BME280;34202;52.536;6.042;2023-05-09T03:58:37;101648.31;;;14.85;100.00
48404;BME280;34202;52.536;6.042;2023-05-09T04:03:37;101647.61;;;14.85;100.00
48404;BME280;34202;52.536;6.042;2023-05-09T04:08:37;101642.02;;;14.87;100.00
48404;BME280;34202;52.536;6.042;2023-05-09T04:13:38;101641.84;;;14.86;100.00
48404;BME280;34202;52.536;6.042;2023-05-09T04:18:38;101639.04;;;14.86;100.00
48404;BME280;34202;52.536;6.042;2023-05-09T04:23:41;101635.53;;;14.87;100.00
48404;BME280;34202;52.536;6.042;2023-05-09T04:28:42;101627.48;;;14.87;100.00
48404;BME280;34202;52.536;6.042;2023-05-09T04:33:43;101622.04;;;14.88;100.00
48404;BME280;34202;52.536;6.042;2023-05-09T04:38:43;101618.36;;;14.89;100.00
48404;BME280;34202;52.536;6.042;2023-05-09T04:43:44;101609.59;;;14.89;100.00
48404;BME280;34202;52.536;6.042;2023-05-09T04:48:45;101598.38;;;14.89;100.00
48404;BME280;34202;52.536;6.042;2023-05-09T04:53:45;101595.39;;;14.90;100.00
48404;BME280;34202;52.536;6.042;2023-05-09T04:58:45;101591.54;;;14.89;100.00
48404;BME280;34202;52.536;6.042;2023-05-09T05:03:46;101586.98;;;14.89;100.00
48404;BME280;34202;52.536;6.042;2023-05-09T05:08:46;101584.19;;;14.91;100.00
48404;BME280;34202;52.536;6.042;2023-05-09T05:13:47;101585.93;;;14.92;100.00
48404;BME280;34202;52.536;6.042;2023-05-09T05:18:47;101587.52;;;14.93;100.00
48404;BME280;34202;52.536;6.042;2023-05-09T05:23:47;101590.32;;;14.94;100.00
48404;BME280;34202;52.536;6.042;2023-05-09T05:28:48;101580.33;;;14.95;100.00
48404;BME280;34202;52.536;6.042;2023-05-09T05:33:54;101574.55;;;14.96;100.00
48404;BME280;34202;52.536;6.042;2023-05-09T05:38:54;101561.77;;;14.98;100.00
48404;BME280;34202;52.536;6.042;2023-05-09T05:43:55;101560.70;;;15.02;100.00
48404;BME280;34202;52.536;6.042;2023-05-09T05:48:55;101556.66;;;15.11;100.00
48404;BME280;34202;52.536;6.042;2023-05-09T05:53:55;101554.20;;;15.16;100.00
48404;BME280;34202;52.536;6.042;2023-05-09T05:58:56;101555.80;;;15.20;100.00
48404;BME280;34202;52.536;6.042;2023-05-09T06:03:56;101547.19;;;15.21;100.00
48404;BME280;34202;52.536;6.042;2023-05-09T06:08:56;101540.34;;;15.23;100.00
48404;BME280;34202;52.536;6.042;2023-05-09T06:13:57;101531.58;;;15.27;100.00
48404;BME280;34202;52.536;6.042;2023-05-09T06:18:57;101535.42;;;15.34;100.00
48404;BME280;34202;52.536;6.042;2023-05-09T06:23:57;101529.10;;;15.41;100.00
48404;BME280;34202;52.536;6.042;2023-05-09T06:28:58;101524.00;;;15.46;100.00
48404;BME280;34202;52.536;6.042;2023-05-09T06:33:58;101515.39;;;15.52;100.00
48404;BME280;34202;52.536;6.042;2023-05-09T06:38:59;101509.21;;;15.59;100.00
48404;BME280;34202;52.536;6.042;2023-05-09T06:43:59;101501.31;;;15.63;100.00
48404;BME280;34202;52.536;6.042;2023-05-09T06:49:01;101493.75;;;15.67;100.00
48404;BME280;34202;52.536;6.042;2023-05-09T06:54:02;101494.09;;;15.73;100.00
48404;BME280;34202;52.536;6.042;2023-05-09T06:59:02;101487.06;;;15.79;100.00
48404;BME280;34202;52.536;6.042;2023-05-09T07:04:03;101476.31;;;15.88;100.00
48404;BME280;34202;52.536;6.042;2023-05-09T07:09:03;101468.70;;;15.99;100.00
48404;BME280;34202;52.536;6.042;2023-05-09T07:14:04;101466.36;;;16.09;100.00
48404;BME280;34202;52.536;6.042;2023-05-09T07:19:04;101457.34;;;16.20;100.00
48404;BME280;34202;52.536;6.042;2023-05-09T07:24:05;101454.80;;;16.31;100.00
48404;BME280;34202;52.536;6.042;2023-05-09T07:29:05;101449.11;;;16.41;100.00
48404;BME280;34202;52.536;6.042;2023-05-09T07:34:06;101443.60;;;16.48;100.00
48404;BME280;34202;52.536;6.042;2023-05-09T07:39:06;101440.21;;;16.54;100.00
48404;BME280;34202;52.536;6.042;2023-05-09T07:44:07;101430.82;;;16.64;100.00
48404;BME280;34202;52.536;6.042;2023-05-09T07:49:08;101429.84;;;16.74;100.00
48404;BME280;34202;52.536;6.042;2023-05-09T07:54:09;101426.80;;;16.82;100.00
48404;BME280;34202;52.536;6.042;2023-05-09T07:59:10;101422.88;;;16.89;100.00
48404;BME280;34202;52.536;6.042;2023-05-09T08:04:11;101419.69;;;16.91;100.00
48404;BME280;34202;52.536;6.042;2023-05-09T08:09:11;101415.45;;;16.93;100.00
48404;BME280;34202;52.536;6.042;2023-05-09T08:14:12;101402.73;;;16.99;100.00
48404;BME280;34202;52.536;6.042;2023-05-09T08:19:12;101395.24;;;17.08;100.00
48404;BME280;34202;52.536;6.042;2023-05-09T08:24:13;101389.49;;;17.19;100.00
48404;BME280;34202;52.536;6.042;2023-05-09T08:29:13;101384.08;;;17.29;100.00
48404;BME280;34202;52.536;6.042;2023-05-09T08:34:13;101373.91;;;17.42;100.00
48404;BME280;34202;52.536;6.042;2023-05-09T08:39:14;101369.52;;;17.54;100.00
48404;BME280;34202;52.536;6.042;2023-05-09T08:44:14;101358.77;;;17.68;100.00
48404;BME280;34202;52.536;6.042;2023-05-09T08:49:15;101355.90;;;17.84;100.00
48404;BME280;34202;52.536;6.042;2023-05-09T08:54:17;101347.91;;;18.00;100.00
48404;BME280;34202;52.536;6.042;2023-05-09T08:59:18;101344.70;;;18.14;100.00
48404;BME280;34202;52.536;6.042;2023-05-09T09:04:18;101342.05;;;18.25;100.00
48404;BME280;34202;52.536;6.042;2023-05-09T09:09:19;101341.32;;;18.36;100.00
48404;BME280;34202;52.536;6.042;2023-05-09T09:14:23;101340.77;;;18.48;100.00
48404;BME280;34202;52.536;6.042;2023-05-09T09:19:29;101330.05;;;18.65;100.00
48404;BME280;34202;52.536;6.042;2023-05-09T09:24:30;101329.34;;;18.84;100.00
48404;BME280;34202;52.536;6.042;2023-05-09T09:29:32;101322.59;;;19.05;100.00
48404;BME280;34202;52.536;6.042;2023-05-09T09:34:33;101314.42;;;19.24;99.84
48404;BME280;34202;52.536;6.042;2023-05-09T09:39:33;101311.55;;;19.35;98.28
48404;BME280;34202;52.536;6.042;2023-05-09T09:44:33;101311.20;;;19.41;97.32
48404;BME280;34202;52.536;6.042;2023-05-09T09:49:34;101306.50;;;19.46;96.32
48404;BME280;34202;52.536;6.042;2023-05-09T09:54:34;101302.80;;;19.46;95.26
48404;BME280;34202;52.536;6.042;2023-05-09T09:59:35;101305.20;;;19.42;94.35
48404;BME280;34202;52.536;6.042;2023-05-09T10:04:37;101303.09;;;19.42;94.17
48404;BME280;34202;52.536;6.042;2023-05-09T10:09:38;101298.30;;;19.42;93.98
48404;BME280;34202;52.536;6.042;2023-05-09T10:14:40;101299.83;;;19.45;93.74
48404;BME280;34202;52.536;6.042;2023-05-09T10:19:45;101298.55;;;19.39;92.73
48404;BME280;34202;52.536;6.042;2023-05-09T10:24:50;101298.25;;;19.29;92.16
48404;BME280;34202;52.536;6.042;2023-05-09T10:30:01;101298.42;;;19.21;92.46
48404;BME280;34202;52.536;6.042;2023-05-09T10:35:08;101292.15;;;19.18;92.39
48404;BME280;34202;52.536;6.042;2023-05-09T10:40:09;101286.04;;;19.15;92.80
48404;BME280;34202;52.536;6.042;2023-05-09T10:45:14;101277.32;;;19.10;92.53
48404;BME280;34202;52.536;6.042;2023-05-09T10:50:14;101278.14;;;19.04;92.70
48404;BME280;34202;52.536;6.042;2023-05-09T10:55:15;101275.34;;;18.95;92.44
48404;BME280;34202;52.536;6.042;2023-05-09T11:00:23;101264.38;;;18.89;93.04
48404;BME280;34202;52.536;6.042;2023-05-09T11:05:24;101255.85;;;18.91;94.16
48404;BME280;34202;52.536;6.042;2023-05-09T11:10:24;101259.84;;;18.95;93.91
48404;BME280;34202;52.536;6.042;2023-05-09T11:15:25;101253.69;;;18.93;93.11
48404;BME280;34202;52.536;6.042;2023-05-09T11:20:32;101244.73;;;18.92;93.48
48404;BME280;34202;52.536;6.042;2023-05-09T11:25:34;101236.30;;;18.99;93.66
48404;BME280;34202;52.536;6.042;2023-05-09T11:30:38;101233.35;;;19.04;94.05
48404;BME280;34202;52.536;6.042;2023-05-09T11:35:40;101229.00;;;19.09;93.88
48404;BME280;34202;52.536;6.042;2023-05-09T11:40:43;101223.60;;;19.06;93.71
48404;BME280;34202;52.536;6.042;2023-05-09T11:45:45;101220.48;;;19.03;93.70
48404;BME280;34202;52.536;6.042;2023-05-09T11:50:46;101216.37;;;18.99;93.98
48404;BME280;34202;52.536;6.042;2023-05-09T11:55:47;101213.49;;;18.93;94.08
48404;BME280;34202;52.536;6.042;2023-05-09T12:00:47;101209.04;;;18.87;94.03
48404;BME280;34202;52.536;6.042;2023-05-09T12:05:48;101207.08;;;18.79;93.86
48404;BME280;34202;52.536;6.042;2023-05-09T12:10:49;101204.40;;;18.71;94.53
48404;BME280;34202;52.536;6.042;2023-05-09T12:15:49;101197.73;;;18.69;94.85
48404;BME280;34202;52.536;6.042;2023-05-09T12:20:49;101196.70;;;18.68;95.73
48404;BME280;34202;52.536;6.042;2023-05-09T12:25:54;101191.47;;;18.65;95.66
48404;BME280;34202;52.536;6.042;2023-05-09T12:30:55;101188.95;;;18.60;95.64
48404;BME280;34202;52.536;6.042;2023-05-09T12:41:08;101181.04;;;18.42;95.80
48404;BME280;34202;52.536;6.042;2023-05-09T12:46:09;101177.62;;;18.28;95.60
48404;BME280;34202;52.536;6.042;2023-05-09T12:51:10;101178.50;;;18.19;96.20
48404;BME280;34202;52.536;6.042;2023-05-09T12:56:18;101172.36;;;18.08;96.38
48404;BME280;34202;52.536;6.042;2023-05-09T13:01:20;101171.15;;;17.98;96.47
48404;BME280;34202;52.536;6.042;2023-05-09T13:06:21;101163.95;;;17.87;96.66
48404;BME280;34202;52.536;6.042;2023-05-09T13:11:23;101161.70;;;17.73;96.50
48404;BME280;34202;52.536;6.042;2023-05-09T13:16:23;101161.89;;;17.63;97.03
48404;BME280;34202;52.536;6.042;2023-05-09T13:21:24;101154.14;;;17.53;97.15
48404;BME280;34202;52.536;6.042;2023-05-09T13:26:24;101150.51;;;17.49;97.97
48404;BME280;34202;52.536;6.042;2023-05-09T13:31:26;101142.80;;;17.47;98.49
48404;BME280;34202;52.536;6.042;2023-05-09T13:36:26;101135.73;;;17.48;98.65
48404;BME280;34202;52.536;6.042;2023-05-09T13:41:27;101133.50;;;17.46;98.79
48404;BME280;34202;52.536;6.042;2023-05-09T13:46:29;101127.46;;;17.38;98.44
48404;BME280;34202;52.536;6.042;2023-05-09T13:51:30;101117.95;;;17.29;98.63
48404;BME280;34202;52.536;6.042;2023-05-09T13:56:31;101114.46;;;17.27;99.47
48404;BME280;34202;52.536;6.042;2023-05-09T14:01:32;101109.66;;;17.30;100.00
48404;BME280;34202;52.536;6.042;2023-05-09T14:06:33;101102.59;;;17.32;100.00
48404;BME280;34202;52.536;6.042;2023-05-09T14:11:33;101095.94;;;17.31;100.00
48404;BME280;34202;52.536;6.042;2023-05-09T14:16:33;101089.09;;;17.29;100.00
48404;BME280;34202;52.536;6.042;2023-05-09T14:21:34;101082.77;;;17.28;100.00
48404;BME280;34202;52.536;6.042;2023-05-09T14:26:34;101075.31;;;17.24;100.00
48404;BME280;34202;52.536;6.042;2023-05-09T14:31:35;101067.51;;;17.16;100.00
48404;BME280;34202;52.536;6.042;2023-05-09T14:36:35;101061.60;;;17.12;100.00
48404;BME280;34202;52.536;6.042;2023-05-09T14:41:36;101059.30;;;17.12;100.00
48404;BME280;34202;52.536;6.042;2023-05-09T14:46:37;101052.45;;;17.13;100.00
48404;BME280;34202;52.536;6.042;2023-05-09T14:51:37;101043.34;;;17.11;100.00
48404;BME280;34202;52.536;6.042;2023-05-09T14:56:37;101038.04;;;17.12;100.00
48404;BME280;34202;52.536;6.042;2023-05-09T15:01:38;101030.11;;;17.13;100.00
48404;BME280;34202;52.536;6.042;2023-05-09T15:06:38;101023.77;;;17.13;100.00
48404;BME280;34202;52.536;6.042;2023-05-09T15:11:39;101021.47;;;17.14;100.00
48404;BME280;34202;52.536;6.042;2023-05-09T15:16:40;101015.61;;;17.07;100.00
48404;BME280;34202;52.536;6.042;2023-05-09T15:21:41;101016.09;;;16.99;100.00
48404;BME280;34202;52.536;6.042;2023-05-09T15:26:41;101008.83;;;16.93;100.00
48404;BME280;34202;52.536;6.042;2023-05-09T15:31:41;101009.80;;;16.86;100.00
48404;BME280;34202;52.536;6.042;2023-05-09T15:36:42;101007.41;;;16.80;100.00
48404;BME280;34202;52.536;6.042;2023-05-09T15:41:43;100999.39;;;16.77;100.00
48404;BME280;34202;52.536;6.042;2023-05-09T15:46:43;100996.40;;;16.76;100.00
48404;BME280;34202;52.536;6.042;2023-05-09T15:51:44;100989.96;;;16.73;100.00
48404;BME280;34202;52.536;6.042;2023-05-09T15:56:44;100980.90;;;16.69;100.00
48404;BME280;34202;52.536;6.042;2023-05-09T16:01:45;100975.48;;;16.67;100.00
48404;BME280;34202;52.536;6.042;2023-05-09T16:06:45;100973.58;;;16.65;100.00
48404;BME280;34202;52.536;6.042;2023-05-09T16:11:46;100969.94;;;16.62;100.00
48404;BME280;34202;52.536;6.042;2023-05-09T16:16:46;100966.66;;;16.58;100.00
48404;BME280;34202;52.536;6.042;2023-05-09T16:21:49;100959.33;;;16.55;100.00
48404;BME280;34202;52.536;6.042;2023-05-09T16:26:49;100955.65;;;16.54;100.00
48404;BME280;34202;52.536;6.042;2023-05-09T16:31:49;100951.48;;;16.52;100.00
48404;BME280;34202;52.536;6.042;2023-05-09T16:36:50;100945.59;;;16.47;100.00
48404;BME280;34202;52.536;6.042;2023-05-09T16:41:51;100944.10;;;16.40;100.00
48404;BME280;34202;52.536;6.042;2023-05-09T16:46:53;100939.61;;;16.36;100.00
48404;BME280;34202;52.536;6.042;2023-05-09T16:51:53;100934.79;;;16.29;100.00
48404;BME280;34202;52.536;6.042;2023-05-09T16:56:54;100930.16;;;16.22;100.00
48404;BME280;34202;52.536;6.042;2023-05-09T17:01:54;100925.16;;;16.15;100.00
48404;BME280;34202;52.536;6.042;2023-05-09T17:06:56;100926.14;;;16.09;100.00
48404;BME280;34202;52.536;6.042;2023-05-09T17:11:57;100923.39;;;16.05;100.00
48404;BME280;34202;52.536;6.042;2023-05-09T17:16:58;100914.98;;;16.03;100.00
48404;BME280;34202;52.536;6.042;2023-05-09T17:21:58;100914.14;;;16.01;100.00
48404;BME280;34202;52.536;6.042;2023-05-09T17:27:03;100911.92;;;15.97;100.00
48404;BME280;34202;52.536;6.042;2023-05-09T17:32:04;100907.39;;;15.94;100.00
48404;BME280;34202;52.536;6.042;2023-05-09T17:37:04;100901.61;;;15.93;100.00
48404;BME280;34202;52.536;6.042;2023-05-09T17:42:05;100905.00;;;15.90;100.00
48404;BME280;34202;52.536;6.042;2023-05-09T18:16:16;100894.15;;;15.46;100.00
48404;BME280;34202;52.536;6.042;2023-05-09T18:21:17;100896.52;;;15.39;100.00
48404;BME280;34202;52.536;6.042;2023-05-09T18:26:17;100893.54;;;15.40;100.00
48404;BME280;34202;52.536;6.042;2023-05-09T18:31:17;100894.23;;;15.39;100.00
48404;BME280;34202;52.536;6.042;2023-05-09T18:36:18;100894.78;;;15.37;100.00
48404;BME280;34202;52.536;6.042;2023-05-09T18:41:18;100899.54;;;15.35;100.00
48404;BME280;34202;52.536;6.042;2023-05-09T18:46:19;100900.11;;;15.32;100.00
48404;BME280;34202;52.536;6.042;2023-05-09T18:51:20;100903.83;;;15.29;100.00
48404;BME280;34202;52.536;6.042;2023-05-09T18:56:20;100903.15;;;15.25;100.00
48404;BME280;34202;52.536;6.042;2023-05-09T19:01:21;100902.66;;;15.23;100.00
48404;BME280;34202;52.536;6.042;2023-05-09T19:06:23;100904.13;;;15.18;100.00
48404;BME280;34202;52.536;6.042;2023-05-09T19:11:25;100903.30;;;15.14;100.00
48404;BME280;34202;52.536;6.042;2023-05-09T19:16:25;100903.34;;;15.10;100.00
48404;BME280;34202;52.536;6.042;2023-05-09T19:21:26;100900.58;;;15.06;100.00
48404;BME280;34202;52.536;6.042;2023-05-09T19:26:27;100900.60;;;15.03;100.00
48404;BME280;34202;52.536;6.042;2023-05-09T19:31:27;100901.16;;;15.01;100.00
48404;BME280;34202;52.536;6.042;2023-05-09T19:36:28;100903.45;;;14.99;100.00
48404;BME280;34202;52.536;6.042;2023-05-09T19:41:28;100903.49;;;14.96;100.00
48404;BME280;34202;52.536;6.042;2023-05-09T19:46:28;100901.08;;;14.93;100.00
48404;BME280;34202;52.536;6.042;2023-05-09T19:51:29;100902.84;;;14.90;100.00
48404;BME280;34202;52.536;6.042;2023-05-09T19:56:30;100902.17;;;14.88;100.00
48404;BME280;34202;52.536;6.042;2023-05-09T20:01:30;100906.03;;;14.86;100.00
48404;BME280;34202;52.536;6.042;2023-05-09T20:06:31;100901.50;;;14.83;100.00
48404;BME280;34202;52.536;6.042;2023-05-09T20:11:31;100904.67;;;14.81;100.00
48404;BME280;34202;52.536;6.042;2023-05-09T20:16:32;100907.50;;;14.79;100.00
48404;BME280;34202;52.536;6.042;2023-05-09T20:21:32;100899.49;;;14.75;100.00
48404;BME280;34202;52.536;6.042;2023-05-09T20:26:32;100899.34;;;14.73;100.00
48404;BME280;34202;52.536;6.042;2023-05-09T20:31:33;100900.05;;;14.71;100.00
48404;BME280;34202;52.536;6.042;2023-05-09T20:36:33;100899.73;;;14.68;100.00
48404;BME280;34202;52.536;6.042;2023-05-09T20:41:33;100896.60;;;14.65;100.00
48404;BME280;34202;52.536;6.042;2023-05-09T20:46:34;100899.42;;;14.63;100.00
48404;BME280;34202;52.536;6.042;2023-05-09T20:51:34;100894.36;;;14.60;100.00
48404;BME280;34202;52.536;6.042;2023-05-09T20:56:35;100897.54;;;14.58;100.00
48404;BME280;34202;52.536;6.042;2023-05-09T21:01:35;100896.83;;;14.55;100.00
48404;BME280;34202;52.536;6.042;2023-05-09T21:06:35;100895.80;;;14.53;100.00
48404;BME280;34202;52.536;6.042;2023-05-09T21:11:36;100896.02;;;14.48;100.00
48404;BME280;34202;52.536;6.042;2023-05-09T21:16:37;100895.86;;;14.46;100.00
48404;BME280;34202;52.536;6.042;2023-05-09T21:21:38;100897.45;;;14.44;100.00
48404;BME280;34202;52.536;6.042;2023-05-09T21:26:38;100893.77;;;14.43;100.00
48404;BME280;34202;52.536;6.042;2023-05-09T21:31:38;100894.85;;;14.42;100.00
48404;BME280;34202;52.536;6.042;2023-05-09T21:36:39;100889.08;;;14.40;100.00
48404;BME280;34202;52.536;6.042;2023-05-09T21:41:39;100887.37;;;14.36;100.00
48404;BME280;34202;52.536;6.042;2023-05-09T21:46:41;100890.20;;;14.34;100.00
48404;BME280;34202;52.536;6.042;2023-05-09T21:51:45;100889.70;;;14.27;100.00
48404;BME280;34202;52.536;6.042;2023-05-09T21:56:45;100892.94;;;14.17;100.00
48404;BME280;34202;52.536;6.042;2023-05-09T22:01:46;100895.64;;;14.08;100.00
48404;BME280;34202;52.536;6.042;2023-05-09T22:06:47;100898.48;;;13.99;100.00
48404;BME280;34202;52.536;6.042;2023-05-09T22:11:48;100902.21;;;13.91;100.00
48404;BME280;34202;52.536;6.042;2023-05-09T22:16:48;100905.04;;;13.85;100.00
48404;BME280;34202;52.536;6.042;2023-05-09T22:21:48;100903.48;;;13.81;100.00
48404;BME280;34202;52.536;6.042;2023-05-09T22:26:49;100902.13;;;13.74;100.00
48404;BME280;34202;52.536;6.042;2023-05-09T22:31:49;100901.63;;;13.68;100.00
48404;BME280;34202;52.536;6.042;2023-05-09T22:36:50;100900.27;;;13.65;100.00
48404;BME280;34202;52.536;6.042;2023-05-09T22:41:53;100898.52;;;13.60;100.00
48404;BME280;34202;52.536;6.042;2023-05-09T22:46:53;100898.02;;;13.56;100.00
48404;BME280;34202;52.536;6.042;2023-05-09T22:51:54;100895.76;;;13.52;100.00
48404;BME280;34202;52.536;6.042;2023-05-09T22:56:54;100897.00;;;13.50;100.00
48404;BME280;34202;52.536;6.042;2023-05-09T23:01:55;100895.98;;;13.46;100.00
48404;BME280;34202;52.536;6.042;2023-05-09T23:06:56;100892.48;;;13.41;100.00
48404;BME280;34202;52.536;6.042;2023-05-09T23:11:57;100893.73;;;13.37;100.00
48404;BME280;34202;52.536;6.042;2023-05-09T23:16:58;100892.52;;;13.30;100.00
48404;BME280;34202;52.536;6.042;2023-05-09T23:21:58;100891.98;;;13.28;100.00
48404;BME280;34202;52.536;6.042;2023-05-09T23:26:59;100890.06;;;13.27;100.00
48404;BME280;34202;52.536;6.042;2023-05-09T23:32:02;100889.55;;;13.26;100.00
48404;BME280;34202;52.536;6.042;2023-05-09T23:37:03;100889.02;;;13.24;100.00
48404;BME280;34202;52.536;6.042;2023-05-09T23:42:03;100883.27;;;13.21;100.00
48404;BME280;34202;52.536;6.042;2023-05-09T23:47:04;100883.09;;;13.19;100.00
48404;BME280;34202;52.536;6.042;2023-05-09T23:52:04;100882.04;;;13.19;100.00
48404;BME280;34202;52.536;6.042;2023-05-09T23:57:05;100884.85;;;13.17;100.00
